Time;durP1;ratioP1;P1;durP2;ratioP2;P2;SDS_P1;SDS_P2;PMS_P1;PMS_P2;Temp;Humidity;BMP_temperature;BMP_pressure;BME280_temperature;BME280_humidity;BME280_pressure;Samples;Min_cycle;Max_cycle;Signal;HPM_P1;HPM_P2
2024/02/15 00:02:06;;;;;;;9.30;4.22;;;12.30;99.90;;;;;;5023253;28;20036;-49
2024/02/15 00:04:33;;;;;;;8.20;4.60;;;12.40;99.90;;;;;;5033403;28;20076;-51
2024/02/15 00:06:59;;;;;;;9.60;4.53;;;12.30;99.90;;;;;;5033813;28;20055;-52
2024/02/15 00:09:25;;;;;;;7.28;4.00;;;12.30;99.90;;;;;;5033380;28;20041;-53
2024/02/15 00:11:51;;;;;;;10.32;4.80;;;12.30;99.90;;;;;;5033198;28;20033;-52
2024/02/15 00:14:17;;;;;;;8.07;4.07;;;12.30;99.90;;;;;;5032719;28;20053;-53
2024/02/15 00:16:42;;;;;;;10.13;4.85;;;12.30;99.90;;;;;;5031961;28;20033;-51
2024/02/15 00:19:08;;;;;;;10.73;4.80;;;12.30;99.90;;;;;;5031380;28;20029;-50
2024/02/15 00:21:35;;;;;;;13.10;5.20;;;12.40;99.90;;;;;;5031231;28;20114;-50
2024/02/15 00:24:00;;;;;;;13.98;5.15;;;12.40;99.90;;;;;;5031459;28;20069;-50
2024/02/15 00:26:26;;;;;;;12.48;5.45;;;12.40;99.90;;;;;;5031537;28;20061;-50
2024/02/15 00:28:52;;;;;;;10.02;4.57;;;12.30;99.90;;;;;;5031191;28;20475;-53
2024/02/15 00:31:18;;;;;;;14.38;5.50;;;12.30;99.90;;;;;;5031414;28;20040;-49
2024/02/15 00:33:44;;;;;;;13.93;5.28;;;12.30;99.90;;;;;;5030982;28;20038;-52
2024/02/15 00:36:10;;;;;;;13.90;5.53;;;12.30;99.90;;;;;;5014920;28;20335;-51
2024/02/15 00:38:36;;;;;;;14.57;5.35;;;12.30;99.90;;;;;;5031186;28;20052;-50
2024/02/15 00:41:02;;;;;;;10.80;5.22;;;12.20;99.90;;;;;;5031318;28;20048;-52
2024/02/15 00:43:28;;;;;;;10.60;5.07;;;12.30;99.90;;;;;;5031248;28;20351;-53
2024/02/15 00:45:53;;;;;;;13.25;5.32;;;12.30;99.90;;;;;;5030969;28;20044;-52
2024/02/15 00:48:19;;;;;;;10.80;5.70;;;12.30;99.90;;;;;;5031287;28;20022;-53
2024/02/15 00:50:45;;;;;;;10.02;5.85;;;12.30;99.90;;;;;;5031156;28;20492;-53
2024/02/15 00:53:10;;;;;;;15.75;5.80;;;12.30;99.90;;;;;;5031342;28;20444;-52
2024/02/15 00:55:36;;;;;;;14.23;5.75;;;12.20;99.90;;;;;;5031026;28;20360;-53
2024/02/15 00:58:02;;;;;;;15.57;6.38;;;12.20;99.90;;;;;;5028794;28;20029;-54
2024/02/15 01:00:28;;;;;;;17.50;6.45;;;12.20;99.90;;;;;;5025119;28;20040;-48
2024/02/15 01:02:54;;;;;;;12.68;6.00;;;12.20;99.90;;;;;;5030704;28;20110;-53
2024/02/15 01:05:21;;;;;;;12.98;6.80;;;12.20;99.90;;;;;;5030606;28;20101;-52
2024/02/15 01:07:48;;;;;;;15.98;6.82;;;12.20;99.90;;;;;;5030820;28;20026;-49
2024/02/15 01:10:15;;;;;;;15.45;6.47;;;12.20;99.90;;;;;;5030366;28;20021;-52
2024/02/15 01:12:40;;;;;;;11.63;6.07;;;12.20;99.90;;;;;;5030791;28;20036;-53
2024/02/15 01:15:06;;;;;;;13.85;5.95;;;12.10;99.90;;;;;;5030422;28;20098;-51
2024/02/15 01:17:32;;;;;;;13.30;5.38;;;12.10;99.90;;;;;;5030521;28;20030;-53
2024/02/15 01:19:58;;;;;;;12.02;5.78;;;12.10;99.90;;;;;;5028836;28;20033;-50
2024/02/15 01:22:27;;;;;;;13.82;5.13;;;12.10;99.90;;;;;;5030512;28;20064;-52
2024/02/15 01:24:53;;;;;;;10.82;4.82;;;12.10;99.90;;;;;;5030263;28;20147;-49
2024/02/15 01:27:19;;;;;;;9.60;4.68;;;12.10;99.90;;;;;;5026192;28;20455;-49
2024/02/15 01:29:45;;;;;;;13.25;5.30;;;12.10;99.90;;;;;;5000627;28;20033;-49
2024/02/15 01:32:10;;;;;;;10.13;4.57;;;12.10;99.90;;;;;;5030584;28;20084;-50
2024/02/15 01:34:36;;;;;;;12.80;4.70;;;12.00;99.90;;;;;;5030316;28;20033;-53
2024/02/15 01:37:02;;;;;;;11.38;5.05;;;12.00;99.90;;;;;;5022265;28;20098;-51
2024/02/15 01:39:28;;;;;;;8.40;4.40;;;12.00;99.90;;;;;;5030157;28;20095;-52
2024/02/15 01:41:56;;;;;;;10.77;4.72;;;12.00;99.90;;;;;;5030159;28;20037;-49
2024/02/15 01:44:24;;;;;;;11.75;4.72;;;12.10;99.90;;;;;;5029051;28;20515;-50
2024/02/15 01:46:52;;;;;;;9.30;4.40;;;12.10;99.90;;;;;;5029703;28;20041;-50
2024/02/15 01:49:18;;;;;;;8.68;4.88;;;12.00;99.90;;;;;;5030004;28;20044;-50
2024/02/15 01:51:44;;;;;;;10.82;4.57;;;11.90;99.90;;;;;;5014772;28;20121;-52
2024/02/15 01:54:16;;;;;;;11.60;4.55;;;12.00;99.90;;;;;;5027115;28;20030;-53
2024/02/15 01:56:43;;;;;;;8.25;4.10;;;12.00;99.90;;;;;;5018781;28;20025;-54
2024/02/15 01:59:12;;;;;;;8.43;3.88;;;12.00;99.90;;;;;;5027983;28;20128;-50
2024/02/15 02:01:38;;;;;;;11.82;4.28;;;12.10;99.90;;;;;;5029902;28;20025;-50
2024/02/15 02:04:04;;;;;;;12.82;4.20;;;12.10;99.90;;;;;;5029976;28;20025;-49
2024/02/15 02:06:30;;;;;;;9.73;4.07;;;12.10;99.90;;;;;;5030188;28;20328;-53
2024/02/15 02:08:56;;;;;;;8.82;4.20;;;12.00;99.90;;;;;;5030056;28;20041;-54
2024/02/15 02:11:23;;;;;;;10.40;4.17;;;12.00;99.90;;;;;;5030024;28;20462;-49
2024/02/15 02:13:49;;;;;;;13.40;4.78;;;11.90;99.90;;;;;;5030114;28;20475;-53
2024/02/15 02:16:32;;;;;;;9.70;3.40;;;12.00;99.90;;;;;;5029659;28;20025;-49
2024/02/15 02:19:01;;;;;;;13.77;4.05;;;12.00;99.90;;;;;;5012263;28;20079;-50
2024/02/15 02:21:30;;;;;;;7.47;3.65;;;12.00;99.90;;;;;;5030049;28;20412;-51
2024/02/15 02:23:57;;;;;;;11.05;3.38;;;12.00;99.90;;;;;;5029871;28;20029;-50
2024/02/15 02:26:24;;;;;;;8.70;3.55;;;12.10;99.90;;;;;;5029877;28;20048;-50
2024/02/15 02:28:50;;;;;;;10.18;3.53;;;12.00;99.90;;;;;;5029627;28;20029;-47
2024/02/15 02:31:16;;;;;;;9.95;3.60;;;12.10;99.90;;;;;;5029802;28;20037;-49
2024/02/15 02:33:46;;;;;;;7.88;3.28;;;12.10;99.90;;;;;;5022934;28;20037;-52
2024/02/15 02:36:12;;;;;;;9.23;3.20;;;12.10;99.90;;;;;;5021253;28;20041;-48
2024/02/15 02:38:38;;;;;;;13.13;4.40;;;12.20;99.90;;;;;;5029583;28;20036;-49
2024/02/15 02:41:04;;;;;;;10.55;3.35;;;12.20;99.90;;;;;;5028027;28;20446;-51
2024/02/15 02:43:30;;;;;;;7.00;2.85;;;12.20;99.90;;;;;;5029691;28;20033;-50
2024/02/15 02:45:55;;;;;;;8.98;2.97;;;12.10;99.90;;;;;;5029684;28;20370;-50
2024/02/15 02:48:21;;;;;;;9.15;3.58;;;12.10;99.90;;;;;;5029473;28;20699;-51
2024/02/15 02:50:48;;;;;;;5.85;2.70;;;12.20;99.90;;;;;;5029510;28;20026;-49
2024/02/15 02:53:15;;;;;;;8.38;2.90;;;12.20;99.90;;;;;;5029743;28;20386;-52
2024/02/15 02:55:44;;;;;;;7.88;3.35;;;12.20;99.90;;;;;;5029734;28;20030;-50
2024/02/15 02:58:09;;;;;;;9.93;3.08;;;12.20;99.90;;;;;;5030011;28;20034;-49
2024/02/15 03:00:35;;;;;;;7.55;2.85;;;12.20;99.90;;;;;;5033101;28;20037;-53
2024/02/15 03:03:00;;;;;;;6.57;2.95;;;12.30;99.90;;;;;;5033224;28;20471;-51
2024/02/15 03:05:27;;;;;;;10.20;2.83;;;12.30;99.90;;;;;;5024725;28;20017;-50
2024/02/15 03:07:53;;;;;;;7.40;2.75;;;12.20;99.90;;;;;;5033142;28;20033;-52
2024/02/15 03:10:19;;;;;;;9.80;3.17;;;12.20;99.90;;;;;;5032588;28;20032;-50
2024/02/15 03:12:46;;;;;;;7.72;2.80;;;12.30;99.90;;;;;;5032986;28;20158;-49
2024/02/15 03:15:13;;;;;;;8.82;2.63;;;12.30;99.90;;;;;;5032593;28;20445;-49
2024/02/15 03:17:42;;;;;;;7.63;2.95;;;12.30;99.90;;;;;;5032961;28;20063;-53
2024/02/15 03:20:12;;;;;;;7.65;2.60;;;12.20;99.90;;;;;;5032380;28;20029;-52
2024/02/15 03:22:38;;;;;;;9.23;2.70;;;12.30;99.90;;;;;;5033004;28;20041;-49
2024/02/15 03:25:07;;;;;;;8.20;2.47;;;12.30;99.90;;;;;;5024258;28;20710;-49
2024/02/15 03:27:35;;;;;;;7.53;2.50;;;12.30;99.90;;;;;;5032971;28;20033;-49
2024/02/15 03:30:01;;;;;;;5.50;2.70;;;12.40;99.90;;;;;;5032103;28;20051;-52
2024/02/15 03:32:27;;;;;;;4.90;2.13;;;12.40;99.90;;;;;;5032904;28;20411;-49
2024/02/15 03:34:54;;;;;;;5.35;2.35;;;12.30;99.90;;;;;;5032694;28;20230;-49
2024/02/15 03:37:20;;;;;;;7.45;2.28;;;12.30;99.90;;;;;;5032687;28;20416;-48
2024/02/15 03:39:46;;;;;;;7.88;2.65;;;12.40;99.90;;;;;;5032352;28;20041;-48
2024/02/15 03:42:12;;;;;;;6.85;2.33;;;12.30;99.90;;;;;;5031959;28;20111;-48
2024/02/15 03:44:38;;;;;;;12.07;2.35;;;12.30;99.90;;;;;;5032326;28;20021;-48
2024/02/15 03:47:05;;;;;;;8.85;2.40;;;12.30;99.90;;;;;;5032145;28;20490;-53
2024/02/15 03:49:31;;;;;;;5.30;2.30;;;12.40;99.90;;;;;;5030757;28;20045;-49
2024/02/15 03:51:59;;;;;;;7.32;2.17;;;12.40;99.90;;;;;;5032199;28;20036;-51
2024/02/15 03:54:25;;;;;;;7.05;2.17;;;12.40;99.90;;;;;;5024136;28;20038;-49
2024/02/15 03:56:52;;;;;;;6.65;2.70;;;12.30;99.90;;;;;;5032523;28;20034;-49
2024/02/15 03:59:26;;;;;;;6.20;2.63;;;12.30;99.90;;;;;;5030829;28;20120;-52
2024/02/15 04:01:55;;;;;;;7.80;2.63;;;12.30;99.90;;;;;;5030720;28;20033;-50
2024/02/15 04:04:21;;;;;;;8.80;3.03;;;12.20;99.90;;;;;;5032164;28;20053;-50
2024/02/15 04:06:48;;;;;;;6.18;2.45;;;12.20;99.90;;;;;;5031933;28;20133;-49
2024/02/15 04:09:13;;;;;;;6.15;3.03;;;12.20;99.90;;;;;;5022103;28;20212;-49
2024/02/15 04:11:40;;;;;;;9.48;3.33;;;12.20;99.90;;;;;;5031483;28;20196;-53
2024/02/15 04:14:05;;;;;;;9.35;3.53;;;12.20;99.90;;;;;;5031028;28;20021;-52
2024/02/15 04:16:33;;;;;;;4.72;2.70;;;12.10;99.90;;;;;;5016407;28;20431;-51
2024/02/15 04:18:59;;;;;;;7.03;3.33;;;12.20;99.90;;;;;;5031507;28;20356;-51
2024/02/15 04:21:27;;;;;;;11.07;3.28;;;12.10;99.90;;;;;;5015232;28;20358;-49
2024/02/15 04:23:54;;;;;;;8.43;3.40;;;12.10;99.90;;;;;;5031515;28;20117;-52
2024/02/15 04:26:20;;;;;;;6.38;2.72;;;12.10;99.90;;;;;;5031761;28;20061;-52
2024/02/15 04:28:52;;;;;;;6.30;2.88;;;12.10;99.90;;;;;;5031317;28;20109;-53
2024/02/15 04:31:18;;;;;;;7.93;3.30;;;12.00;99.90;;;;;;5029553;28;20025;-53
2024/02/15 04:33:43;;;;;;;6.07;2.90;;;12.00;99.90;;;;;;5025657;28;20373;-52
2024/02/15 04:36:09;;;;;;;6.47;2.92;;;12.00;99.90;;;;;;5030300;28;20458;-53
2024/02/15 04:38:35;;;;;;;7.18;3.00;;;12.00;99.90;;;;;;5024310;28;20029;-51
2024/02/15 04:41:09;;;;;;;9.90;3.55;;;12.10;99.90;;;;;;5031393;28;20466;-53
2024/02/15 04:43:37;;;;;;;6.85;2.88;;;12.10;99.90;;;;;;5031166;28;20430;-53
2024/02/15 04:46:07;;;;;;;7.38;3.40;;;12.10;99.90;;;;;;5024505;28;20405;-53
2024/02/15 04:48:34;;;;;;;5.63;3.10;;;12.10;99.90;;;;;;5020875;28;20049;-51
2024/02/15 04:51:01;;;;;;;11.68;2.95;;;12.00;99.90;;;;;;5011830;28;20084;-50
2024/02/15 04:53:30;;;;;;;8.60;3.13;;;12.00;99.90;;;;;;5019818;28;20040;-51
2024/02/15 04:55:55;;;;;;;6.90;2.88;;;12.00;99.90;;;;;;5016309;28;20053;-48
2024/02/15 04:58:21;;;;;;;5.65;3.25;;;12.00;99.90;;;;;;5022320;28;20029;-50
2024/02/15 05:00:48;;;;;;;5.80;2.92;;;12.00;99.90;;;;;;5012869;28;20451;-49
2024/02/15 05:03:14;;;;;;;6.53;2.60;;;12.00;99.90;;;;;;5017264;28;20550;-49
2024/02/15 05:05:39;;;;;;;7.60;2.57;;;12.00;99.90;;;;;;5020103;28;20108;-48
2024/02/15 05:08:05;;;;;;;6.97;2.70;;;12.00;99.90;;;;;;5027763;28;20048;-49
2024/02/15 05:10:31;;;;;;;6.63;2.90;;;12.00;99.90;;;;;;5030560;28;20026;-49
2024/02/15 05:12:57;;;;;;;8.82;2.72;;;11.90;99.90;;;;;;5030597;28;20033;-49
2024/02/15 05:15:24;;;;;;;5.28;2.40;;;11.90;99.90;;;;;;5030289;28;20037;-48
2024/02/15 05:17:50;;;;;;;5.38;2.15;;;11.90;99.90;;;;;;5031010;28;20415;-49
2024/02/15 05:20:16;;;;;;;7.22;2.75;;;12.00;99.90;;;;;;5029005;28;20025;-49
2024/02/15 05:22:50;;;;;;;4.20;2.67;;;12.00;99.90;;;;;;5030281;28;20128;-50
2024/02/15 05:25:22;;;;;;;4.00;2.07;;;12.00;99.90;;;;;;5030921;28;20121;-49
2024/02/15 05:27:47;;;;;;;7.10;2.33;;;12.00;99.90;;;;;;5030729;28;20581;-49
2024/02/15 05:30:14;;;;;;;6.22;2.50;;;12.00;99.90;;;;;;5028830;28;20120;-49
2024/02/15 05:32:45;;;;;;;5.28;2.38;;;12.00;99.90;;;;;;5030494;28;20501;-51
2024/02/15 05:35:11;;;;;;;4.00;2.33;;;11.90;99.90;;;;;;5030259;28;20084;-50
2024/02/15 05:37:38;;;;;;;7.03;2.45;;;11.90;99.90;;;;;;5030699;28;20040;-48
2024/02/15 05:40:04;;;;;;;4.28;2.20;;;12.00;99.90;;;;;;5024940;28;20099;-49
2024/02/15 05:42:30;;;;;;;6.47;2.47;;;12.00;99.90;;;;;;5019626;28;20033;-51
2024/02/15 05:45:19;;;;;;;5.15;1.98;;;12.00;99.90;;;;;;5020216;28;20022;-49
2024/02/15 05:47:45;;;;;;;4.05;2.13;;;12.00;99.90;;;;;;5010100;28;20035;-52
2024/02/15 05:50:10;;;;;;;5.93;1.92;;;12.00;99.90;;;;;;5028159;28;20108;-50
2024/02/15 05:52:36;;;;;;;5.30;2.17;;;12.00;99.90;;;;;;5030917;28;20026;-49
2024/02/15 05:55:02;;;;;;;5.70;1.92;;;12.00;99.90;;;;;;5030983;28;20033;-49
2024/02/15 05:57:29;;;;;;;7.90;1.83;;;12.00;99.90;;;;;;5028678;28;21518;-49
2024/02/15 05:59:54;;;;;;;9.40;2.20;;;12.10;99.90;;;;;;5031145;28;20033;-49
2024/02/15 06:02:20;;;;;;;6.13;2.00;;;12.10;99.90;;;;;;5029868;28;20198;-49
2024/02/15 06:04:46;;;;;;;4.88;1.77;;;12.10;99.90;;;;;;5017157;28;20105;-53
2024/02/15 06:07:11;;;;;;;4.60;2.28;;;12.10;99.90;;;;;;5027217;28;20093;-50
2024/02/15 06:09:39;;;;;;;4.53;2.05;;;12.00;99.90;;;;;;5029866;28;20028;-52
2024/02/15 06:12:06;;;;;;;6.05;2.70;;;12.00;99.90;;;;;;5030279;28;20431;-50
2024/02/15 06:14:32;;;;;;;4.55;2.10;;;12.10;99.90;;;;;;5017495;28;20383;-49
2024/02/15 06:16:57;;;;;;;7.72;2.10;;;12.10;99.90;;;;;;5025082;28;20031;-51
2024/02/15 06:19:24;;;;;;;5.53;2.50;;;12.00;99.90;;;;;;5028200;28;20033;-51
2024/02/15 06:21:50;;;;;;;4.53;2.25;;;12.10;99.90;;;;;;5029750;28;20417;-50
2024/02/15 06:24:15;;;;;;;6.50;2.60;;;12.00;99.90;;;;;;5029414;28;20036;-48
2024/02/15 06:26:42;;;;;;;7.68;2.75;;;12.10;99.90;;;;;;5029573;28;20060;-52
2024/02/15 06:40:20;;;;;;;7.63;3.42;;;12.00;99.90;;;;;;5033151;28;20419;-49
2024/02/15 06:42:45;;;;;;;5.50;3.30;;;12.00;99.90;;;;;;5033461;28;20040;-50
2024/02/15 06:45:13;;;;;;;7.80;2.63;;;12.00;99.90;;;;;;5016923;28;20033;-50
2024/02/15 06:47:43;;;;;;;7.65;3.22;;;12.00;99.90;;;;;;5025540;28;20026;-52
2024/02/15 06:50:13;;;;;;;7.55;2.75;;;12.00;99.90;;;;;;5017358;28;20040;-50
2024/02/15 06:52:39;;;;;;;7.43;2.42;;;12.00;99.90;;;;;;5017785;28;20117;-50
2024/02/15 06:55:11;;;;;;;5.05;2.60;;;12.00;99.90;;;;;;5032985;28;20032;-49
2024/02/15 06:57:43;;;;;;;7.55;2.50;;;12.00;99.90;;;;;;5031525;28;20056;-53
2024/02/15 07:00:14;;;;;;;5.88;2.47;;;12.00;99.90;;;;;;5032970;28;20030;-54
2024/02/15 07:02:41;;;;;;;6.70;3.03;;;12.00;99.90;;;;;;5031898;28;20049;-50
2024/02/15 07:05:06;;;;;;;6.28;2.90;;;12.00;99.90;;;;;;5033356;28;20496;-52
2024/02/15 07:07:33;;;;;;;9.27;3.07;;;12.00;99.90;;;;;;5031583;28;20112;-51
2024/02/15 07:09:59;;;;;;;7.60;2.50;;;12.00;99.90;;;;;;5032810;28;20386;-52
2024/02/15 07:12:25;;;;;;;7.00;3.17;;;12.00;99.90;;;;;;5032798;28;20033;-50
2024/02/15 07:14:51;;;;;;;4.63;3.00;;;12.00;99.90;;;;;;5032591;28;20029;-50
2024/02/15 07:17:16;;;;;;;6.65;3.10;;;12.00;99.90;;;;;;5032646;28;20057;-51
2024/02/15 07:19:48;;;;;;;5.55;2.67;;;12.00;99.90;;;;;;5032585;28;20036;-50
2024/02/15 07:22:15;;;;;;;6.28;2.67;;;11.90;99.90;;;;;;5031502;28;20112;-50
2024/02/15 07:24:41;;;;;;;7.00;2.83;;;12.00;99.90;;;;;;5032290;28;20017;-52
2024/02/15 07:27:06;;;;;;;8.85;2.85;;;12.00;99.90;;;;;;5032854;28;20455;-49
2024/02/15 07:29:32;;;;;;;6.38;2.97;;;12.00;99.90;;;;;;5030961;28;20037;-49
2024/02/15 07:32:04;;;;;;;8.50;2.83;;;12.00;99.90;;;;;;5032450;28;20021;-53
2024/02/15 07:34:30;;;;;;;7.03;2.17;;;12.00;99.90;;;;;;5031737;28;20032;-49
2024/02/15 07:36:57;;;;;;;7.05;2.40;;;12.00;99.90;;;;;;5026223;28;20041;-50
2024/02/15 07:39:24;;;;;;;6.60;2.58;;;11.90;99.90;;;;;;5024368;28;20089;-50
2024/02/15 07:41:59;;;;;;;5.93;2.70;;;11.90;99.90;;;;;;5031185;28;20390;-50
2024/02/15 07:44:27;;;;;;;7.55;3.08;;;11.80;99.90;;;;;;5032448;28;20033;-51
2024/02/15 07:46:53;;;;;;;8.40;3.08;;;11.80;99.90;;;;;;5032086;28;20025;-49
2024/02/15 07:49:18;;;;;;;5.78;2.60;;;11.80;99.90;;;;;;5032385;28;20083;-49
2024/02/15 07:51:45;;;;;;;4.72;2.60;;;11.80;99.90;;;;;;5032761;28;20045;-49
2024/02/15 07:54:11;;;;;;;7.22;2.90;;;11.80;99.90;;;;;;5032661;28;20018;-51
2024/02/15 07:56:38;;;;;;;6.15;2.85;;;11.80;99.90;;;;;;5019825;28;20467;-50
2024/02/15 07:59:04;;;;;;;6.93;2.83;;;11.80;99.90;;;;;;5008795;28;20026;-50
2024/02/15 08:01:31;;;;;;;10.50;3.17;;;11.80;99.90;;;;;;5011868;28;20021;-49
2024/02/15 08:03:56;;;;;;;6.60;2.42;;;11.80;99.90;;;;;;5032261;28;20045;-49
2024/02/15 08:06:27;;;;;;;6.68;2.75;;;11.80;99.90;;;;;;5032162;28;20125;-50
2024/02/15 08:08:53;;;;;;;7.15;2.67;;;11.90;99.90;;;;;;5031943;28;20030;-51
2024/02/15 08:11:19;;;;;;;6.10;2.78;;;12.00;99.90;;;;;;5032050;28;20192;-52
2024/02/15 08:13:49;;;;;;;5.47;2.15;;;12.00;99.90;;;;;;5009417;28;20029;-50
2024/02/15 08:16:20;;;;;;;4.93;2.13;;;12.00;99.90;;;;;;5024871;28;20052;-52
2024/02/15 08:18:46;;;;;;;8.25;2.35;;;12.00;99.90;;;;;;5022707;28;20390;-49
2024/02/15 08:21:12;;;;;;;5.13;2.20;;;12.00;99.90;;;;;;5031842;28;20030;-49
2024/02/15 08:23:38;;;;;;;4.63;2.30;;;12.10;99.90;;;;;;5031053;28;20494;-50
2024/02/15 08:26:04;;;;;;;5.50;2.38;;;12.10;99.90;;;;;;5025261;28;20025;-48
2024/02/15 08:28:30;;;;;;;6.53;2.10;;;12.10;99.90;;;;;;5028916;28;20175;-48
2024/02/15 08:30:57;;;;;;;7.85;2.22;;;12.00;99.90;;;;;;5023301;28;20490;-50
2024/02/15 08:33:23;;;;;;;6.30;2.63;;;12.00;99.90;;;;;;5031082;28;20033;-51
2024/02/15 08:35:49;;;;;;;6.22;2.42;;;12.10;99.90;;;;;;5031117;28;20105;-48
2024/02/15 08:38:14;;;;;;;7.50;2.65;;;12.00;99.90;;;;;;5023088;28;20695;-49
2024/02/15 08:40:40;;;;;;;6.15;2.38;;;11.90;99.90;;;;;;5022691;28;20036;-48
2024/02/15 08:43:06;;;;;;;6.50;2.75;;;11.90;99.90;;;;;;5031644;28;20026;-47
2024/02/15 08:45:31;;;;;;;4.82;2.35;;;12.00;99.90;;;;;;5020532;28;20060;-54
2024/02/15 08:47:57;;;;;;;5.35;2.20;;;11.90;99.90;;;;;;5008793;28;20383;-50
2024/02/15 08:50:23;;;;;;;7.17;2.60;;;11.90;99.90;;;;;;5011120;28;20635;-52
2024/02/15 08:52:49;;;;;;;4.87;2.70;;;11.80;99.90;;;;;;5022277;28;20021;-51
2024/02/15 08:55:16;;;;;;;6.43;3.00;;;11.90;99.90;;;;;;5023626;28;20040;-52
2024/02/15 08:57:44;;;;;;;5.83;2.50;;;11.90;99.90;;;;;;5013912;28;20030;-51
2024/02/15 09:00:14;;;;;;;9.25;2.72;;;11.90;99.90;;;;;;5010221;28;20132;-51
2024/02/15 09:02:40;;;;;;;9.02;2.65;;;11.90;99.90;;;;;;5013169;28;20542;-49
2024/02/15 09:05:06;;;;;;;7.20;2.42;;;11.90;99.90;;;;;;5014173;28;20030;-53
2024/02/15 09:07:32;;;;;;;9.37;2.70;;;12.00;99.90;;;;;;5010411;28;20025;-50
2024/02/15 09:09:58;;;;;;;5.85;2.42;;;11.90;99.90;;;;;;5009882;28;20383;-53
2024/02/15 09:12:24;;;;;;;11.53;3.50;;;11.90;99.90;;;;;;5023293;28;20037;-49
2024/02/15 09:14:49;;;;;;;9.90;4.40;;;11.90;99.90;;;;;;5011091;28;20040;-49
2024/02/15 09:17:15;;;;;;;14.48;6.80;;;11.90;99.90;;;;;;5009609;28;20033;-52
2024/02/15 09:19:41;;;;;;;9.50;3.60;;;11.90;99.90;;;;;;5027909;28;20030;-52
2024/02/15 09:22:07;;;;;;;5.00;2.70;;;11.90;99.90;;;;;;5024237;28;20025;-49
2024/02/15 09:24:36;;;;;;;7.63;2.50;;;12.10;99.90;;;;;;5018509;28;20339;-49
2024/02/15 09:27:02;;;;;;;4.95;2.50;;;12.10;99.90;;;;;;5010804;28;20029;-50
2024/02/15 09:29:34;;;;;;;9.85;2.83;;;12.10;99.90;;;;;;5018830;28;20033;-49
2024/02/15 09:32:03;;;;;;;4.63;2.20;;;12.10;99.90;;;;;;5011473;28;20014;-49
2024/02/15 09:34:28;;;;;;;4.55;2.40;;;12.10;99.90;;;;;;5011313;28;20022;-53
2024/02/15 09:36:55;;;;;;;6.50;2.40;;;12.10;99.90;;;;;;5020035;28;20335;-52
2024/02/15 09:39:21;;;;;;;3.70;2.13;;;12.20;99.90;;;;;;5020196;28;20037;-53
2024/02/15 09:41:50;;;;;;;6.75;1.98;;;12.20;99.90;;;;;;5020631;28;20038;-53
2024/02/15 09:44:16;;;;;;;8.35;1.70;;;12.20;99.90;;;;;;5016641;28;20100;-53
2024/02/15 09:46:50;;;;;;;5.07;1.75;;;12.20;99.90;;;;;;5021534;28;20061;-52
2024/02/15 09:49:15;;;;;;;4.53;1.90;;;12.30;99.90;;;;;;5013972;28;20061;-53
2024/02/15 09:51:42;;;;;;;4.18;1.83;;;12.30;99.90;;;;;;5024426;28;20416;-50
2024/02/15 09:54:09;;;;;;;3.20;1.35;;;12.40;99.90;;;;;;5025734;28;20065;-49
2024/02/15 09:56:35;;;;;;;5.28;2.25;;;12.50;99.90;;;;;;5005976;28;20038;-52
2024/02/15 09:59:01;;;;;;;7.75;1.80;;;12.50;99.90;;;;;;5016552;28;20037;-49
2024/02/15 10:01:30;;;;;;;4.22;1.80;;;12.50;99.90;;;;;;5018137;28;20040;-52
2024/02/15 10:03:59;;;;;;;4.10;2.17;;;12.60;99.90;;;;;;5026854;28;20037;-49
2024/02/15 10:06:24;;;;;;;10.27;1.77;;;12.60;99.90;;;;;;5027189;28;20036;-51
2024/02/15 10:08:50;;;;;;;6.05;2.10;;;12.70;99.90;;;;;;5020585;28;20030;-50
2024/02/15 10:11:16;;;;;;;5.00;2.00;;;12.80;99.90;;;;;;5023099;28;20131;-48
2024/02/15 10:13:44;;;;;;;3.47;1.30;;;12.90;99.90;;;;;;5031319;28;20037;-49
2024/02/15 10:16:20;;;;;;;4.32;1.80;;;13.00;99.90;;;;;;5026017;28;20053;-49
2024/02/15 10:18:49;;;;;;;3.88;1.80;;;13.20;99.90;;;;;;5028386;28;20505;-50
2024/02/15 10:21:33;;;;;;;4.30;1.35;;;13.30;99.90;;;;;;5020676;28;20026;-49
2024/02/15 10:24:06;;;;;;;3.58;2.13;;;13.30;99.90;;;;;;5017313;28;20037;-50
2024/02/15 10:26:32;;;;;;;5.60;1.60;;;13.30;99.90;;;;;;5024328;28;20107;-49
2024/02/15 10:29:08;;;;;;;6.78;1.85;;;13.30;99.90;;;;;;5013267;28;20029;-49
2024/02/15 10:31:35;;;;;;;3.97;1.30;;;13.30;99.90;;;;;;5022688;28;20113;-50
2024/02/15 10:34:04;;;;;;;4.07;1.52;;;13.40;99.90;;;;;;5021443;28;20041;-49
2024/02/15 10:36:33;;;;;;;4.45;1.85;;;13.40;99.90;;;;;;5022717;28;20417;-52
2024/02/15 10:39:16;;;;;;;5.63;1.48;;;13.40;99.90;;;;;;5014408;28;20480;-51
2024/02/15 10:41:47;;;;;;;4.15;1.20;;;13.50;99.90;;;;;;5016495;28;20033;-49
2024/02/15 10:44:23;;;;;;;6.95;1.88;;;13.50;99.90;;;;;;5021264;28;20345;-49
2024/02/15 10:46:53;;;;;;;3.20;1.13;;;13.60;99.90;;;;;;5015270;28;20026;-52
2024/02/15 10:49:23;;;;;;;4.30;1.67;;;13.60;99.90;;;;;;5015408;28;20038;-48
2024/02/15 10:51:56;;;;;;;6.32;1.65;;;13.70;99.90;;;;;;5007040;28;20160;-51
2024/02/15 10:54:52;;;;;;;4.93;1.92;;;13.60;99.90;;;;;;5013013;28;20483;-49
2024/02/15 10:57:24;;;;;;;4.00;1.50;;;13.80;99.90;;;;;;5025151;28;20068;-50
2024/02/15 10:59:57;;;;;;;6.78;1.85;;;13.80;99.90;;;;;;5020723;28;20037;-50
2024/02/15 11:02:37;;;;;;;5.50;1.70;;;13.80;99.90;;;;;;5020359;28;20410;-49
2024/02/15 11:05:09;;;;;;;2.28;1.10;;;13.90;99.90;;;;;;5020340;28;20032;-49
2024/02/15 11:07:36;;;;;;;9.07;1.60;;;14.00;99.90;;;;;;5025463;28;20040;-49
2024/02/15 11:10:07;;;;;;;6.70;2.10;;;14.10;99.90;;;;;;5022602;28;20029;-51
2024/02/15 11:12:34;;;;;;;3.80;1.73;;;14.20;99.90;;;;;;5018276;28;20052;-49
2024/02/15 11:15:00;;;;;;;4.90;1.58;;;14.30;99.90;;;;;;5028842;28;20025;-50
2024/02/15 11:17:43;;;;;;;3.10;1.75;;;14.50;99.90;;;;;;5029189;28;20508;-51
2024/02/15 11:20:10;;;;;;;5.25;1.75;;;14.80;99.90;;;;;;5021853;28;20037;-48
2024/02/15 11:22:37;;;;;;;7.03;1.92;;;15.20;99.90;;;;;;5027784;28;20560;-52
2024/02/15 11:25:15;;;;;;;3.78;1.42;;;15.40;99.90;;;;;;5019382;28;20022;-53
2024/02/15 11:27:41;;;;;;;4.50;1.48;;;15.40;99.90;;;;;;5020170;28;20034;-51
2024/02/15 11:30:12;;;;;;;5.07;1.45;;;15.50;99.90;;;;;;5023366;28;20078;-53
2024/02/15 11:32:51;;;;;;;3.67;1.30;;;15.60;99.90;;;;;;5019618;28;20034;-50
2024/02/15 11:35:22;;;;;;;6.90;1.35;;;15.60;99.90;;;;;;5025127;28;20030;-52
2024/02/15 11:37:55;;;;;;;3.13;1.30;;;15.70;99.90;;;;;;5021328;28;20117;-51
2024/02/15 11:40:28;;;;;;;5.35;1.20;;;15.70;99.90;;;;;;5021675;28;20033;-52
2024/02/15 11:43:02;;;;;;;2.83;1.10;;;15.70;99.90;;;;;;5021120;28;20033;-52
2024/02/15 11:45:41;;;;;;;5.15;1.27;;;15.60;99.90;;;;;;5012195;28;20383;-51
2024/02/15 11:48:13;;;;;;;3.13;1.70;;;15.60;99.90;;;;;;5009133;28;20071;-51
2024/02/15 11:50:40;;;;;;;4.00;1.60;;;15.60;99.90;;;;;;5024094;28;20048;-51
2024/02/15 11:53:10;;;;;;;4.40;1.80;;;15.70;99.90;;;;;;5021871;28;20451;-50
2024/02/15 11:55:39;;;;;;;5.35;1.65;;;16.00;99.90;;;;;;5019956;28;20374;-51
2024/02/15 12:19:57;;;;;;;3.95;1.33;;;17.60;99.90;;;;;;5020814;28;20029;-50
2024/02/15 12:22:50;;;;;;;3.38;1.23;;;17.50;99.90;;;;;;5017965;28;20067;-50
2024/02/15 12:25:20;;;;;;;7.75;1.55;;;17.60;99.90;;;;;;5028389;28;20042;-52
2024/02/15 12:27:52;;;;;;;16.15;7.97;;;17.90;99.90;;;;;;5023718;28;20385;-51
2024/02/15 12:30:21;;;;;;;10.40;4.10;;;18.30;99.90;;;;;;5022893;28;20037;-53
2024/02/15 12:32:47;;;;;;;5.13;1.25;;;18.60;99.90;;;;;;5030858;28;20121;-52
2024/02/15 12:35:19;;;;;;;5.00;2.00;;;18.70;99.90;;;;;;5030878;28;20104;-53
2024/02/15 12:37:59;;;;;;;2.55;1.35;;;19.20;99.90;;;;;;5023185;28;20049;-51
2024/02/15 12:40:34;;;;;;;5.57;1.45;;;19.70;99.90;;;;;;5024977;28;20034;-50
2024/02/15 12:43:00;;;;;;;2.50;0.90;;;19.60;99.90;;;;;;5030139;28;20084;-52
2024/02/15 12:45:30;;;;;;;3.40;1.15;;;19.20;99.90;;;;;;5016776;28;20049;-49
2024/02/15 12:47:56;;;;;;;5.07;1.38;;;19.30;99.90;;;;;;5029390;28;20101;-52
2024/02/15 12:50:23;;;;;;;5.20;1.20;;;19.90;99.90;;;;;;5030561;28;20041;-51
2024/02/15 12:52:50;;;;;;;4.57;1.30;;;20.60;99.90;;;;;;5022969;28;20069;-52
2024/02/15 12:55:17;;;;;;;2.92;1.27;;;20.90;99.90;;;;;;5022669;28;20438;-50
2024/02/15 12:57:49;;;;;;;3.83;1.30;;;21.30;99.90;;;;;;5030824;28;20078;-51
2024/02/15 13:00:17;;;;;;;5.30;1.52;;;21.30;99.90;;;;;;5031456;28;20040;-53
2024/02/15 13:02:50;;;;;;;1.67;0.90;;;21.40;99.90;;;;;;5022753;28;20033;-53
2024/02/15 13:05:21;;;;;;;1.90;1.08;;;21.00;99.90;;;;;;5022555;28;20080;-52
2024/02/15 13:07:48;;;;;;;3.63;1.40;;;20.50;99.90;;;;;;5022454;28;20034;-53
2024/02/15 13:10:17;;;;;;;1.73;0.98;;;20.30;99.90;;;;;;5026102;28;20123;-49
2024/02/15 13:12:46;;;;;;;;;;;20.00;99.90;;;;;;5019261;28;20076;-50
2024/02/15 13:15:17;;;;;;;2.60;0.98;;;19.70;99.90;;;;;;5022362;28;19944;-52
2024/02/15 13:17:48;;;;;;;2.75;0.82;;;19.70;99.90;;;;;;5024077;28;20037;-53
2024/02/15 13:20:15;;;;;;;5.50;1.27;;;19.30;99.90;;;;;;5030026;28;20064;-52
2024/02/15 13:22:43;;;;;;;3.83;1.10;;;19.10;99.90;;;;;;5030382;28;20037;-52